Terminal Aerodrome Forecast
Issued by NWS Columbia, SC

Home | Current Version | Previous Version | Text Only | Print | Product List | Glossary On
Versions: 1 2 3 4 5 6 7 8 9 10 11 12 13 14 15 16 17 18 19 20 21 22 23 24 25 26 27 28 29 30 31 32 33 34 35 36 37 38 39 40 41 42
068
FTAK31 PAJN 271736
TAFAGS
TAF
PAGS 271736Z 2718/2818 VRB03KT 2SM -SN BR BKN015 OVC025
      TEMPO 2718/2720 1SM -SN BKN008
     FM272000 VRB04KT 4SM -RASN BR OVC015 WS020/12025KT
     FM280300 13011KT 6SM -SHRA BR BKN015 OVC025
     FM280900 13006KT P6SM VCSH SCT015 OVC045
      AMD LTD TO CLD VIS AND WIND=

USA.gov is the U.S. government's official web portal to all federal, state and local government web resources and services.